createdAt,value
2023-05-16T00:00:03.364Z,89
2023-05-16T00:00:33.973Z,89
2023-05-16T00:01:04.298Z,89
2023-05-16T00:01:35.584Z,89
2023-05-16T00:02:42.465Z,89
2023-05-16T00:03:08.981Z,89
2023-05-16T00:04:15.592Z,89
2023-05-16T00:04:32.299Z,89
2023-05-16T00:05:03.979Z,89
2023-05-16T00:05:34.291Z,89
2023-05-16T00:06:05.479Z,89
2023-05-16T00:06:36.449Z,89
2023-05-16T00:07:08.073Z,89
2023-05-16T00:07:38.264Z,89
2023-05-16T00:08:09.608Z,89
2023-05-16T00:08:40.454Z,89
2023-05-16T00:09:11.515Z,89
2023-05-16T00:09:42.367Z,89
2023-05-16T00:10:13.408Z,89
2023-05-16T00:10:43.864Z,89
2023-05-16T00:11:33.045Z,89
2023-05-16T00:11:46.298Z,89
2023-05-16T00:12:17.540Z,89
2023-05-16T00:12:49.389Z,89
2023-05-16T00:13:24.693Z,89
2023-05-16T00:14:50.998Z,89
2023-05-16T00:20:05.854Z,89
2023-05-16T00:20:35.827Z,89
2023-05-16T00:21:23.807Z,89
2023-05-16T00:21:36.727Z,89
2023-05-16T00:22:06.928Z,89
2023-05-16T00:22:37.979Z,89
2023-05-16T00:23:10.442Z,89
2023-05-16T00:23:39.348Z,89
2023-05-16T00:24:10.424Z,89
2023-05-16T00:24:42.789Z,89
2023-05-16T00:25:14.274Z,89
2023-05-16T00:30:02.092Z,89
2023-05-16T00:30:33.711Z,89
2023-05-16T00:30:57.461Z,89
2023-05-16T00:31:29.853Z,89
2023-05-16T00:31:55.897Z,89
2023-05-16T00:32:26.746Z,89
2023-05-16T00:32:57.935Z,89
2023-05-16T00:34:09.679Z,89
2023-05-16T00:34:31.250Z,90
2023-05-16T00:35:02.570Z,90
2023-05-16T00:35:33.326Z,90
2023-05-16T00:36:04.031Z,90
2023-05-16T00:36:35.560Z,90
2023-05-16T00:37:06.380Z,90
2023-05-16T00:37:41.727Z,90
2023-05-16T00:38:08.593Z,90
2023-05-16T00:38:39.288Z,90
2023-05-16T00:39:43.759Z,90
2023-05-16T00:40:40.492Z,90
2023-05-16T00:41:14.884Z,90
2023-05-16T00:41:46.625Z,90
2023-05-16T00:42:50.014Z,90
2023-05-16T00:43:17.626Z,90
2023-05-16T00:43:50.719Z,90
2023-05-16T00:44:19.624Z,90
2023-05-16T00:44:51.001Z,90
2023-05-16T00:45:22.596Z,90
2023-05-16T00:45:52.353Z,91
2023-05-16T00:46:23.830Z,91
2023-05-16T00:46:54.597Z,91
2023-05-16T00:47:26.096Z,90
2023-05-16T00:47:56.996Z,90
2023-05-16T00:48:28.591Z,90
2023-05-16T00:48:59.019Z,91
2023-05-16T00:49:29.384Z,91
2023-05-16T00:50:00.307Z,91
2023-05-16T00:50:31.462Z,91
2023-05-16T00:51:02.930Z,91
2023-05-16T00:51:36.366Z,91
2023-05-16T00:52:05.504Z,91
2023-05-16T00:52:35.634Z,91
2023-05-16T00:53:06.638Z,91
2023-05-16T00:53:37.496Z,91
2023-05-16T00:54:08.422Z,91
2023-05-16T00:54:39.270Z,91
2023-05-16T00:55:10.674Z,91
2023-05-16T00:55:42.857Z,91
2023-05-16T00:56:12.640Z,91
2023-05-16T00:56:43.433Z,90
2023-05-16T00:57:14.852Z,91
2023-05-16T00:57:45.999Z,90
2023-05-16T00:58:16.360Z,90
2023-05-16T00:58:47.283Z,90
2023-05-16T00:59:18.964Z,90
2023-05-16T00:59:49.342Z,90
2023-05-16T01:00:21.768Z,91
2023-05-16T01:00:51.382Z,91
2023-05-16T01:01:22.685Z,91
2023-05-16T01:01:53.671Z,91
2023-05-16T01:02:24.636Z,91
2023-05-16T01:02:56.018Z,91
2023-05-16T01:03:26.926Z,91
2023-05-16T01:03:57.539Z,91
2023-05-16T01:04:28.403Z,91
2023-05-16T01:04:59.837Z,91
2023-05-16T01:05:30.580Z,92
2023-05-16T01:06:01.582Z,92
2023-05-16T01:06:32.421Z,92
2023-05-16T01:07:03.639Z,92
2023-05-16T01:07:34.300Z,92
2023-05-16T01:08:06.105Z,92
2023-05-16T01:08:36.726Z,92
2023-05-16T01:09:07.654Z,92
2023-05-16T01:09:38.165Z,92
2023-05-16T01:10:52.179Z,92
2023-05-16T01:11:11.930Z,92
2023-05-16T01:11:45.232Z,92
2023-05-16T01:12:13.875Z,92
2023-05-16T01:12:44.581Z,92
2023-05-16T01:13:16.144Z,92
2023-05-16T01:13:46.695Z,92
2023-05-16T01:14:17.468Z,92
2023-05-16T01:14:48.550Z,92
2023-05-16T01:15:19.382Z,91
2023-05-16T01:15:54.059Z,92
2023-05-16T01:16:21.867Z,91
2023-05-16T01:16:52.708Z,91
2023-05-16T01:17:23.918Z,91
2023-05-16T01:17:54.783Z,91
2023-05-16T01:18:25.684Z,91
2023-05-16T01:18:57.100Z,91
2023-05-16T01:19:27.743Z,91
2023-05-16T01:20:29.671Z,91
2023-05-16T01:21:00.732Z,90
2023-05-16T01:21:32.376Z,90
2023-05-16T01:22:02.886Z,90
2023-05-16T01:22:34.109Z,90
2023-05-16T01:23:04.979Z,90
2023-05-16T01:23:38.144Z,90
2023-05-16T01:24:07.841Z,90
2023-05-16T01:24:38.711Z,90
2023-05-16T01:25:09.168Z,90
2023-05-16T01:25:40.581Z,90
2023-05-16T01:26:10.773Z,90
2023-05-16T01:26:42.030Z,90
2023-05-16T01:27:43.885Z,90
2023-05-16T01:28:15.514Z,90
2023-05-16T01:28:46.265Z,90
2023-05-16T01:29:17.523Z,90
2023-05-16T01:29:49.186Z,90
2023-05-16T01:30:18.798Z,90
2023-05-16T01:31:20.970Z,90
2023-05-16T01:31:51.589Z,90
2023-05-16T01:32:22.658Z,90
2023-05-16T01:33:11.307Z,90
2023-05-16T01:33:25.207Z,90
2023-05-16T01:34:05.884Z,90
2023-05-16T01:34:26.479Z,90
2023-05-16T01:34:57.644Z,90
2023-05-16T01:35:28.878Z,90
2023-05-16T01:35:59.747Z,90
2023-05-16T01:36:30.343Z,90
2023-05-16T01:37:01.556Z,90
2023-05-16T01:37:32.969Z,90
2023-05-16T01:38:04.122Z,90
2023-05-16T01:38:35.289Z,90
2023-05-16T01:39:06.219Z,90
2023-05-16T01:39:48.202Z,90
2023-05-16T01:40:08.618Z,90
2023-05-16T01:40:39.347Z,90
2023-05-16T01:41:09.808Z,90
2023-05-16T01:41:41.105Z,90
2023-05-16T01:42:11.836Z,90
2023-05-16T01:43:23.266Z,91
2023-05-16T01:43:44.618Z,91
2023-05-16T01:44:15.813Z,91
2023-05-16T01:44:46.922Z,91
2023-05-16T01:45:17.851Z,91
2023-05-16T01:45:48.498Z,91
2023-05-16T01:46:19.589Z,91
2023-05-16T01:46:50.802Z,91
2023-05-16T01:47:22.202Z,91
2023-05-16T01:47:52.508Z,91
2023-05-16T01:48:23.849Z,91
2023-05-16T01:48:54.959Z,91
2023-05-16T01:49:26.230Z,91
2023-05-16T01:49:56.833Z,91
2023-05-16T01:50:27.508Z,91
2023-05-16T01:51:16.557Z,91
2023-05-16T01:51:47.009Z,91
2023-05-16T01:52:00.689Z,91
2023-05-16T01:52:32.008Z,91
2023-05-16T01:53:03.020Z,91
2023-05-16T01:53:33.615Z,91
2023-05-16T01:54:04.929Z,91
2023-05-16T01:54:35.859Z,92
2023-05-16T01:55:07.922Z,92
2023-05-16T01:55:38.027Z,92
2023-05-16T01:56:09.210Z,92
2023-05-16T01:56:39.832Z,92
2023-05-16T01:57:11.415Z,92
2023-05-16T01:57:41.809Z,91
2023-05-16T01:58:12.721Z,91
2023-05-16T01:58:44.415Z,91
2023-05-16T01:59:14.913Z,91
2023-05-16T01:59:46.128Z,91
2023-05-16T02:00:19.111Z,91
2023-05-16T02:00:48.264Z,91
2023-05-16T02:01:18.616Z,91
2023-05-16T02:01:54.551Z,91
2023-05-16T02:02:20.789Z,91
2023-05-16T02:02:51.862Z,91
2023-05-16T02:03:42.497Z,91
2023-05-16T02:03:54.104Z,91
2023-05-16T02:04:24.984Z,91
2023-05-16T02:05:20.150Z,91
2023-05-16T02:05:27.477Z,91
2023-05-16T02:05:57.542Z,91
2023-05-16T02:06:28.594Z,91
2023-05-16T02:07:21.296Z,91
2023-05-16T02:07:30.585Z,91
2023-05-16T02:08:32.875Z,91
2023-05-16T02:09:04.026Z,91
2023-05-16T02:09:35.045Z,91
2023-05-16T02:10:06.699Z,91
2023-05-16T02:10:37.251Z,91
2023-05-16T02:11:08.465Z,91
2023-05-16T02:11:39.315Z,91
2023-05-16T02:12:10.040Z,91
2023-05-16T02:12:46.319Z,91
2023-05-16T02:13:11.776Z,91
2023-05-16T02:13:42.853Z,91
2023-05-16T02:14:14.213Z,91
2023-05-16T02:14:44.974Z,91
2023-05-16T02:15:16.645Z,91
2023-05-16T02:15:46.865Z,91
2023-05-16T02:16:17.432Z,91
2023-05-16T02:16:48.897Z,91
2023-05-16T02:17:19.513Z,91
2023-05-16T02:17:50.985Z,91
2023-05-16T02:18:21.459Z,91
2023-05-16T02:18:52.872Z,91
2023-05-16T02:19:24.036Z,91
2023-05-16T02:19:55.228Z,91
2023-05-16T02:20:26.269Z,91
2023-05-16T02:20:57.482Z,91
2023-05-16T02:21:27.880Z,91
2023-05-16T02:21:59.217Z,91
2023-05-16T02:22:29.917Z,91
2023-05-16T02:23:01.486Z,91
2023-05-16T02:23:33.101Z,92
2023-05-16T02:24:03.017Z,92
2023-05-16T02:24:33.797Z,92
2023-05-16T02:25:05.587Z,92
2023-05-16T02:25:36.049Z,92
2023-05-16T02:26:07.136Z,92
2023-05-16T02:26:38.873Z,92
2023-05-16T02:27:09.118Z,92
2023-05-16T02:27:40.619Z,92
2023-05-16T02:28:11.263Z,92
2023-05-16T02:28:59.225Z,92
2023-05-16T02:29:13.112Z,92
2023-05-16T02:29:43.683Z,92
2023-05-16T02:30:16.141Z,92
2023-05-16T02:30:46.470Z,92
2023-05-16T02:31:16.901Z,92
2023-05-16T02:31:47.870Z,92
2023-05-16T02:32:19.043Z,92
2023-05-16T02:32:50.013Z,92
2023-05-16T02:33:21.739Z,92
2023-05-16T02:33:52.309Z,92
2023-05-16T02:34:23.123Z,91
2023-05-16T02:34:53.751Z,91
2023-05-16T02:35:24.920Z,91
2023-05-16T02:35:55.954Z,91
2023-05-16T02:36:27.158Z,91
2023-05-16T02:36:57.837Z,91
2023-05-16T02:37:28.744Z,91
2023-05-16T02:37:59.762Z,91
2023-05-16T02:38:31.216Z,92
2023-05-16T02:39:02.246Z,92
2023-05-16T02:39:32.907Z,92
2023-05-16T02:40:35.029Z,92
2023-05-16T02:41:06.359Z,92
2023-05-16T02:41:37.349Z,92
2023-05-16T02:42:08.350Z,92
2023-05-16T02:42:39.051Z,92
2023-05-16T02:43:10.220Z,92
2023-05-16T02:43:40.960Z,92
2023-05-16T02:44:12.320Z,92
2023-05-16T02:44:42.876Z,92
2023-05-16T02:45:14.900Z,92
2023-05-16T02:45:45.189Z,92
2023-05-16T02:46:16.294Z,92
2023-05-16T02:46:47.182Z,92
2023-05-16T02:47:17.907Z,92
2023-05-16T02:47:49.057Z,92
2023-05-16T02:48:19.949Z,92
2023-05-16T02:48:51.138Z,92
2023-05-16T02:49:53.167Z,92
2023-05-16T02:50:24.330Z,92
2023-05-16T02:56:05.437Z,93
2023-05-16T02:56:36.219Z,93
2023-05-16T02:57:07.933Z,93
2023-05-16T02:57:38.294Z,93
2023-05-16T02:58:39.774Z,93
2023-05-16T02:59:11.697Z,93
2023-05-16T02:59:42.102Z,93
2023-05-16T03:00:15.109Z,93
2023-05-16T03:00:44.221Z,93
2023-05-16T03:01:15.447Z,93
2023-05-16T03:01:46.429Z,93
2023-05-16T03:02:17.240Z,93
2023-05-16T03:02:48.263Z,93
2023-05-16T03:03:18.970Z,93
2023-05-16T03:03:50.309Z,94
2023-05-16T03:04:21.396Z,94
2023-05-16T03:04:52.895Z,94
2023-05-16T03:05:24.765Z,94
2023-05-16T03:05:53.824Z,94
2023-05-16T03:06:25.976Z,94
2023-05-16T03:06:56.387Z,94
2023-05-16T03:07:27.331Z,94
2023-05-16T03:08:05.408Z,94
2023-05-16T03:08:29.358Z,94
2023-05-16T03:08:59.954Z,94
2023-05-16T03:09:31.637Z,94
2023-05-16T03:10:02.759Z,94
2023-05-16T03:10:33.075Z,94
2023-05-16T03:11:03.765Z,94
2023-05-16T03:11:36.852Z,94
2023-05-16T03:12:07.072Z,94
2023-05-16T03:12:41.919Z,95
2023-05-16T03:13:08.360Z,95
2023-05-16T03:13:38.931Z,95
2023-05-16T03:14:10.199Z,95
2023-05-16T03:14:41.593Z,95
2023-05-16T03:15:12.858Z,95
2023-05-16T03:15:43.480Z,95
2023-05-16T03:16:14.303Z,95
2023-05-16T03:16:45.179Z,95
2023-05-16T03:17:16.719Z,95
2023-05-16T03:17:47.090Z,95
2023-05-16T03:18:18.237Z,95
2023-05-16T03:18:49.026Z,95
2023-05-16T03:19:20.807Z,95
2023-05-16T03:19:51.669Z,95
2023-05-16T03:20:22.667Z,95
2023-05-16T03:20:53.389Z,95
2023-05-16T03:21:24.596Z,95
2023-05-16T03:21:55.599Z,95
2023-05-16T03:22:26.895Z,95
2023-05-16T03:23:00.130Z,95
2023-05-16T03:23:27.919Z,95
2023-05-16T03:23:59.070Z,95
2023-05-16T03:24:29.824Z,95
2023-05-16T03:25:01.438Z,95
2023-05-16T03:25:32.086Z,95
2023-05-16T03:26:03.101Z,95
2023-05-16T03:26:34.017Z,95
2023-05-16T03:27:05.212Z,96
2023-05-16T03:27:36.356Z,96
2023-05-16T03:28:07.607Z,96
2023-05-16T03:28:38.479Z,96
2023-05-16T03:29:09.198Z,96
2023-05-16T03:29:40.680Z,96
2023-05-16T03:30:12.346Z,96
2023-05-16T03:30:42.829Z,96
2023-05-16T03:31:13.136Z,96
2023-05-16T03:31:44.404Z,96
2023-05-16T03:32:15.862Z,96
2023-05-16T03:32:47.115Z,96
2023-05-16T03:33:17.704Z,96
2023-05-16T03:33:48.160Z,96
2023-05-16T03:34:54.443Z,96
2023-05-16T03:35:08.146Z,96
2023-05-16T03:35:21.376Z,96
2023-05-16T03:35:52.321Z,96
2023-05-16T03:36:23.295Z,96
2023-05-16T03:36:54.489Z,96
2023-05-16T03:37:26.265Z,96
2023-05-16T03:37:56.864Z,96
2023-05-16T03:38:28.125Z,96
2023-05-16T03:38:58.893Z,96
2023-05-16T03:39:29.321Z,97
2023-05-16T03:40:00.433Z,97
2023-05-16T03:40:31.431Z,97
2023-05-16T03:41:02.555Z,97
2023-05-16T03:41:33.436Z,97
2023-05-16T03:42:04.279Z,97
2023-05-16T03:43:06.588Z,97
2023-05-16T03:43:38.642Z,97
2023-05-16T03:44:09.154Z,97
2023-05-16T03:44:39.205Z,97
2023-05-16T03:45:12.056Z,97
2023-05-16T03:45:41.366Z,97
2023-05-16T03:46:12.390Z,97
2023-05-16T03:46:43.286Z,97
2023-05-16T03:47:14.871Z,97
2023-05-16T03:47:45.315Z,97
2023-05-16T03:48:16.797Z,97
2023-05-16T03:48:47.599Z,97
2023-05-16T03:49:18.167Z,97
2023-05-16T03:49:49.193Z,97
2023-05-16T03:50:20.811Z,97
2023-05-16T03:50:51.625Z,97
2023-05-16T03:51:22.902Z,97
2023-05-16T03:51:53.455Z,97
2023-05-16T03:52:24.733Z,97
2023-05-16T03:53:12.744Z,97
2023-05-16T03:53:26.946Z,97
2023-05-16T03:53:57.670Z,97
2023-05-16T03:54:28.405Z,97
2023-05-16T03:54:59.543Z,97
2023-05-16T03:55:30.268Z,97
2023-05-16T03:56:01.425Z,96
2023-05-16T03:56:32.641Z,96
2023-05-16T03:57:04.092Z,96
2023-05-16T03:57:34.353Z,96
2023-05-16T03:58:05.630Z,96
2023-05-16T03:58:36.636Z,96
2023-05-16T03:59:08.224Z,96
2023-05-16T03:59:38.826Z,96
2023-05-16T04:00:09.675Z,96
2023-05-16T04:00:40.329Z,96
2023-05-16T04:01:12.000Z,95
2023-05-16T04:01:42.568Z,95
2023-05-16T04:02:14.177Z,95
2023-05-16T04:02:44.238Z,95
2023-05-16T04:03:15.750Z,95
2023-05-16T04:03:46.816Z,95
2023-05-16T04:04:17.486Z,95
2023-05-16T04:04:48.280Z,95
2023-05-16T04:05:19.501Z,95
2023-05-16T04:05:50.463Z,95
2023-05-16T04:06:21.690Z,94
2023-05-16T04:06:52.284Z,94
2023-05-16T04:07:24.038Z,94
2023-05-16T04:07:54.409Z,94
2023-05-16T04:08:25.198Z,94
2023-05-16T04:08:56.853Z,94
2023-05-16T04:09:27.868Z,94
2023-05-16T04:09:58.758Z,94
2023-05-16T04:10:29.912Z,94
2023-05-16T04:11:00.072Z,94
2023-05-16T04:11:31.143Z,94
2023-05-16T04:12:02.797Z,94
2023-05-16T04:12:33.892Z,94
2023-05-16T04:13:04.380Z,94
2023-05-16T04:13:35.484Z,94
2023-05-16T04:14:06.727Z,94
2023-05-16T04:14:37.879Z,94
2023-05-16T04:15:09.605Z,94
2023-05-16T04:15:39.582Z,94
2023-05-16T04:16:10.410Z,94
2023-05-16T04:16:42.267Z,93
2023-05-16T04:17:12.432Z,93
2023-05-16T04:17:43.278Z,93
2023-05-16T04:18:14.501Z,93
2023-05-16T04:18:45.823Z,93
2023-05-16T04:19:17.210Z,93
2023-05-16T04:19:47.535Z,94
2023-05-16T04:20:18.579Z,94
2023-05-16T04:20:49.432Z,94
2023-05-16T04:21:20.134Z,94
2023-05-16T04:21:51.388Z,94
2023-05-16T04:22:23.214Z,93
2023-05-16T04:22:53.850Z,93
2023-05-16T04:23:24.987Z,93
2023-05-16T04:23:55.436Z,93
2023-05-16T04:24:26.561Z,93
2023-05-16T04:25:28.734Z,93
2023-05-16T04:25:59.457Z,93
2023-05-16T04:26:30.385Z,93
2023-05-16T04:27:01.581Z,93
2023-05-16T04:27:32.545Z,93
2023-05-16T04:28:03.883Z,93
2023-05-16T04:28:34.240Z,93
2023-05-16T04:29:05.532Z,93
2023-05-16T04:29:37.091Z,93
2023-05-16T04:30:08.918Z,93
2023-05-16T04:30:38.808Z,93
2023-05-16T04:31:10.110Z,93
2023-05-16T04:31:40.751Z,93
2023-05-16T04:32:11.509Z,93
2023-05-16T04:32:43.562Z,93
2023-05-16T04:33:13.517Z,93
2023-05-16T04:33:45.246Z,93
2023-05-16T04:34:15.685Z,93
2023-05-16T04:34:47.048Z,93
2023-05-16T04:35:17.728Z,93
2023-05-16T04:35:49.249Z,93
2023-05-16T04:36:19.265Z,93
2023-05-16T04:36:50.942Z,93
2023-05-16T04:37:21.735Z,93
2023-05-16T04:37:52.578Z,93
2023-05-16T04:38:24.003Z,93
2023-05-16T04:38:54.100Z,93
2023-05-16T04:39:25.872Z,93
2023-05-16T04:39:57.087Z,93
2023-05-16T04:40:28.335Z,93
2023-05-16T04:40:58.268Z,93
2023-05-16T04:41:29.641Z,93
2023-05-16T04:42:00.645Z,92
2023-05-16T04:42:32.520Z,92
2023-05-16T04:43:03.088Z,92
2023-05-16T04:43:33.683Z,92
2023-05-16T04:44:13.107Z,92
2023-05-16T04:44:37.032Z,93
2023-05-16T04:45:07.869Z,93
2023-05-16T04:46:08.621Z,93
2023-05-16T04:46:39.663Z,93
2023-05-16T04:47:11.214Z,93
2023-05-16T04:47:41.382Z,93
2023-05-16T04:48:12.676Z,93
2023-05-16T04:48:43.220Z,93
2023-05-16T04:49:14.829Z,93
2023-05-16T04:49:45.735Z,93
2023-05-16T04:50:18.889Z,93
2023-05-16T04:50:47.578Z,93
2023-05-16T04:51:18.637Z,93
2023-05-16T04:51:49.452Z,93
2023-05-16T04:52:20.484Z,93
2023-05-16T04:52:51.857Z,93
2023-05-16T04:53:23.139Z,93
2023-05-16T04:53:53.682Z,93
2023-05-16T04:54:24.325Z,93
2023-05-16T04:54:55.755Z,93
2023-05-16T04:55:27.554Z,93
2023-05-16T04:56:14.896Z,93
2023-05-16T04:56:28.700Z,93
2023-05-16T04:56:59.650Z,92
2023-05-16T04:57:30.428Z,92
2023-05-16T04:58:01.418Z,92
2023-05-16T04:58:32.592Z,93
2023-05-16T04:59:03.620Z,92
2023-05-16T04:59:34.820Z,92
2023-05-16T05:00:06.991Z,93
2023-05-16T05:00:37.172Z,92
2023-05-16T05:01:08.224Z,92
2023-05-16T05:01:38.812Z,92
2023-05-16T05:02:09.498Z,92
2023-05-16T05:02:40.766Z,93
2023-05-16T05:03:11.724Z,93
2023-05-16T05:03:42.733Z,92
2023-05-16T05:04:14.712Z,92
2023-05-16T05:04:44.687Z,92
2023-05-16T05:05:15.434Z,92
2023-05-16T05:05:46.739Z,92
2023-05-16T05:06:17.454Z,92
2023-05-16T05:06:49.089Z,92
2023-05-16T05:07:19.675Z,92
2023-05-16T05:07:50.476Z,92
2023-05-16T05:08:21.467Z,92
2023-05-16T05:08:52.505Z,92
2023-05-16T05:09:23.746Z,92
2023-05-16T05:09:54.811Z,92
2023-05-16T05:10:28.912Z,92
2023-05-16T05:10:56.947Z,92
2023-05-16T05:11:58.548Z,92
2023-05-16T05:13:10.096Z,92
2023-05-16T05:13:31.536Z,92
2023-05-16T05:14:14.453Z,92
2023-05-16T05:14:33.883Z,92
2023-05-16T05:15:06.040Z,92
2023-05-16T05:15:36.368Z,92
2023-05-16T05:16:07.121Z,92
2023-05-16T05:16:38.359Z,92
2023-05-16T05:17:08.641Z,92
2023-05-16T05:17:39.408Z,92
2023-05-16T05:18:10.550Z,92
2023-05-16T05:18:41.561Z,92
2023-05-16T05:19:12.830Z,92
2023-05-16T05:19:43.772Z,92
2023-05-16T05:20:15.353Z,92
2023-05-16T05:21:36.955Z,92
2023-05-16T05:21:56.057Z,92
2023-05-16T05:22:18.460Z,92
2023-05-16T05:23:01.721Z,92
2023-05-16T05:23:20.582Z,92
2023-05-16T05:23:51.759Z,92
2023-05-16T05:24:26.522Z,92
2023-05-16T05:24:53.391Z,92
2023-05-16T05:25:25.478Z,92
2023-05-16T05:26:06.344Z,92
2023-05-16T05:26:27.301Z,92
2023-05-16T05:26:57.603Z,92
2023-05-16T05:27:28.763Z,92
2023-05-16T05:28:23.680Z,92
2023-05-16T05:28:31.139Z,92
2023-05-16T05:29:13.913Z,92
2023-05-16T05:29:48.337Z,92
2023-05-16T05:30:27.648Z,92
2023-05-16T05:30:35.126Z,92
2023-05-16T05:31:05.787Z,92
2023-05-16T05:31:53.980Z,92
2023-05-16T05:32:07.847Z,92
2023-05-16T05:32:39.262Z,92
2023-05-16T05:33:09.366Z,92
2023-05-16T05:33:40.675Z,92
2023-05-16T05:34:11.831Z,92
2023-05-16T05:34:42.630Z,92
2023-05-16T05:35:14.413Z,92
2023-05-16T05:35:45.217Z,92
2023-05-16T05:36:15.528Z,92
2023-05-16T05:36:47.223Z,92
2023-05-16T05:37:17.922Z,92
2023-05-16T05:37:48.434Z,92
2023-05-16T05:38:19.705Z,92
2023-05-16T05:38:50.837Z,92
2023-05-16T05:39:33.152Z,92
2023-05-16T05:39:52.636Z,92
2023-05-16T05:40:41.416Z,92
2023-05-16T05:40:54.690Z,92
2023-05-16T05:41:26.122Z,92
2023-05-16T05:42:47.040Z,92
2023-05-16T05:43:04.891Z,92
2023-05-16T05:43:30.284Z,92
2023-05-16T05:44:00.945Z,92
2023-05-16T05:44:38.568Z,92
2023-05-16T05:45:03.589Z,92
2023-05-16T05:45:33.923Z,92
2023-05-16T05:47:22.842Z,92
2023-05-16T05:47:53.869Z,92
2023-05-16T05:48:09.529Z,92
2023-05-16T05:48:40.138Z,92
2023-05-16T05:49:10.925Z,92
2023-05-16T05:49:41.690Z,92
2023-05-16T05:50:13.272Z,92
2023-05-16T05:50:43.734Z,92
2023-05-16T05:51:15.096Z,92
2023-05-16T05:51:45.813Z,92
2023-05-16T05:52:17.223Z,93
2023-05-16T05:52:48.105Z,93
2023-05-16T05:53:18.873Z,93
2023-05-16T05:53:49.573Z,92
2023-05-16T05:54:22.266Z,92
2023-05-16T05:54:52.082Z,93
2023-05-16T05:55:22.967Z,93
2023-05-16T05:55:54.306Z,93
2023-05-16T05:56:25.357Z,93
2023-05-16T05:56:55.930Z,92
2023-05-16T05:57:27.489Z,92
2023-05-16T05:57:57.830Z,92
2023-05-16T05:58:29.281Z,92
2023-05-16T05:58:59.767Z,92
2023-05-16T05:59:31.722Z,93
2023-05-16T06:00:02.679Z,93
2023-05-16T06:00:33.118Z,93
2023-05-16T06:01:03.863Z,93
2023-05-16T06:01:34.660Z,93
2023-05-16T06:02:06.448Z,93
2023-05-16T06:02:37.243Z,93
2023-05-16T06:03:08.509Z,93
2023-05-16T06:03:38.814Z,93
2023-05-16T06:04:10.307Z,93
2023-05-16T06:04:40.662Z,93
2023-05-16T06:05:12.347Z,93
2023-05-16T06:05:43.576Z,93
2023-05-16T06:06:14.147Z,93
2023-05-16T06:06:45.024Z,93
2023-05-16T06:07:17.275Z,93
2023-05-16T06:07:47.202Z,93
2023-05-16T06:08:18.414Z,93
2023-05-16T06:08:53.750Z,93
2023-05-16T06:09:20.513Z,93
2023-05-16T06:09:51.223Z,93
2023-05-16T06:10:22.999Z,93
2023-05-16T06:10:52.711Z,93
2023-05-16T06:11:23.591Z,93
2023-05-16T06:11:54.962Z,93
2023-05-16T06:12:37.922Z,93
2023-05-16T06:12:57.083Z,93
2023-05-16T06:13:27.758Z,93
2023-05-16T06:13:59.217Z,93
2023-05-16T06:14:29.998Z,93
2023-05-16T06:15:01.675Z,92
2023-05-16T06:15:36.900Z,92
2023-05-16T06:16:02.982Z,92
2023-05-16T06:16:33.985Z,92
2023-05-16T06:17:05.128Z,92
2023-05-16T06:17:35.708Z,92
2023-05-16T06:18:07.166Z,92
2023-05-16T06:18:38.890Z,92
2023-05-16T06:19:09.416Z,92
2023-05-16T06:19:39.865Z,92
2023-05-16T06:20:11.843Z,92
2023-05-16T06:20:41.787Z,92
2023-05-16T06:21:13.566Z,92
2023-05-16T06:21:43.811Z,92
2023-05-16T06:22:14.690Z,92
2023-05-16T06:22:46.182Z,92
2023-05-16T06:23:19.260Z,92
2023-05-16T06:23:48.415Z,92
2023-05-16T06:24:18.944Z,92
2023-05-16T06:24:49.692Z,91
2023-05-16T06:25:21.619Z,92
2023-05-16T06:25:51.542Z,92
2023-05-16T06:26:23.474Z,91
2023-05-16T06:26:54.112Z,91
2023-05-16T06:27:25.079Z,91
2023-05-16T06:27:56.035Z,91
2023-05-16T06:28:27.025Z,91
2023-05-16T06:28:57.935Z,91
2023-05-16T06:29:46.417Z,91
2023-05-16T06:30:00.218Z,91
2023-05-16T06:30:31.230Z,91
2023-05-16T06:31:02.053Z,91
2023-05-16T06:31:33.083Z,91
2023-05-16T06:32:04.149Z,91
2023-05-16T06:32:34.970Z,91
2023-05-16T06:33:06.079Z,91
2023-05-16T06:33:37.050Z,90
2023-05-16T06:34:08.867Z,90
2023-05-16T06:34:39.021Z,90
2023-05-16T06:35:10.806Z,90
2023-05-16T06:35:40.990Z,90
2023-05-16T06:36:12.416Z,90
2023-05-16T06:36:43.020Z,90
2023-05-16T06:37:14.284Z,89
2023-05-16T06:37:45.243Z,89
2023-05-16T06:38:16.481Z,89
2023-05-16T06:38:48.278Z,89
2023-05-16T06:39:17.778Z,89
2023-05-16T06:40:07.047Z,88
2023-05-16T06:40:39.676Z,88
2023-05-16T06:40:50.634Z,88
2023-05-16T06:41:21.912Z,87
2023-05-16T06:41:55.632Z,88
2023-05-16T06:42:24.020Z,88
2023-05-16T06:42:54.842Z,88
2023-05-16T06:43:26.157Z,87
2023-05-16T06:43:57.193Z,86
2023-05-16T06:44:27.788Z,87
2023-05-16T06:44:58.612Z,87
2023-05-16T06:45:30.612Z,87
2023-05-16T06:46:01.030Z,86
2023-05-16T06:46:31.867Z,87
2023-05-16T06:47:03.024Z,87
2023-05-16T06:47:34.091Z,87
2023-05-16T06:48:05.275Z,87
2023-05-16T06:48:53.157Z,88
2023-05-16T06:49:07.422Z,88
2023-05-16T06:49:37.704Z,88
2023-05-16T06:50:09.506Z,88
2023-05-16T06:50:40.189Z,88
2023-05-16T06:51:11.192Z,88
2023-05-16T06:51:41.900Z,88
2023-05-16T06:52:12.939Z,88
2023-05-16T06:52:43.981Z,88
2023-05-16T06:53:15.518Z,87
2023-05-16T06:53:46.448Z,87
2023-05-16T06:54:17.166Z,86
2023-05-16T06:54:47.957Z,86
2023-05-16T06:55:49.836Z,86
2023-05-16T06:56:21.388Z,86
2023-05-16T06:56:52.116Z,86
2023-05-16T06:57:39.994Z,86
2023-05-16T06:57:54.165Z,86
2023-05-16T06:58:25.101Z,86
2023-05-16T06:58:55.960Z,86
2023-05-16T06:59:28.221Z,86
2023-05-16T06:59:57.993Z,86
2023-05-16T07:00:29.402Z,87
2023-05-16T07:01:00.119Z,87
2023-05-16T07:01:31.195Z,87
2023-05-16T07:02:01.693Z,86
2023-05-16T07:02:32.820Z,86
2023-05-16T07:03:04.046Z,86
2023-05-16T07:03:35.104Z,86
2023-05-16T07:04:06.214Z,86
2023-05-16T07:04:37.357Z,86
2023-05-16T07:05:08.466Z,86
2023-05-16T07:05:39.045Z,86
2023-05-16T07:06:10.567Z,87
2023-05-16T07:06:58.235Z,87
2023-05-16T07:07:12.030Z,87
2023-05-16T07:07:42.761Z,87
2023-05-16T07:08:14.044Z,86
2023-05-16T07:08:45.292Z,87
2023-05-16T07:09:15.819Z,87
2023-05-16T07:09:47.192Z,87
2023-05-16T07:10:36.546Z,86
2023-05-16T07:10:49.061Z,86
2023-05-16T07:11:20.146Z,86
2023-05-16T07:11:51.474Z,87
2023-05-16T07:12:21.899Z,86
2023-05-16T07:12:52.825Z,86
2023-05-16T07:13:55.392Z,85
2023-05-16T07:14:26.032Z,86
2023-05-16T07:14:57.379Z,86
2023-05-16T07:15:28.441Z,86
2023-05-16T07:15:58.904Z,87
2023-05-16T07:16:30.001Z,86
2023-05-16T07:17:01.215Z,86
2023-05-16T07:17:32.175Z,86
2023-05-16T07:18:02.826Z,86
2023-05-16T07:18:34.395Z,86
2023-05-16T07:19:05.031Z,86
2023-05-16T07:19:35.893Z,87
2023-05-16T07:20:07.653Z,86
2023-05-16T07:20:38.146Z,86
2023-05-16T07:21:08.866Z,86
2023-05-16T07:21:40.054Z,86
2023-05-16T07:22:11.197Z,85
2023-05-16T07:22:41.887Z,85
2023-05-16T07:23:13.177Z,85
2023-05-16T07:23:43.932Z,86
2023-05-16T07:24:15.117Z,85
2023-05-16T07:24:45.776Z,85
2023-05-16T07:25:17.131Z,86
2023-05-16T07:25:47.952Z,86
2023-05-16T07:26:18.796Z,86
2023-05-16T07:26:49.991Z,85
2023-05-16T07:27:23.469Z,84
2023-05-16T07:27:51.946Z,85
2023-05-16T07:28:22.801Z,85
2023-05-16T07:28:53.932Z,85
2023-05-16T07:29:25.380Z,84
2023-05-16T07:30:14.044Z,84
2023-05-16T07:30:27.624Z,84
2023-05-16T07:30:58.049Z,84
2023-05-16T07:31:29.115Z,85
2023-05-16T07:31:59.984Z,85
2023-05-16T07:32:31.122Z,84
2023-05-16T07:33:02.080Z,84
2023-05-16T07:33:32.857Z,84
2023-05-16T07:34:04.099Z,84
2023-05-16T07:34:35.011Z,84
2023-05-16T07:35:06.096Z,83
2023-05-16T07:35:37.210Z,83
2023-05-16T07:36:15.928Z,84
2023-05-16T07:37:10.311Z,84
2023-05-16T07:37:41.314Z,84
2023-05-16T07:38:12.090Z,84
2023-05-16T07:38:43.126Z,83
2023-05-16T07:39:14.076Z,83
2023-05-16T07:39:44.962Z,84
2023-05-16T07:40:16.322Z,84
2023-05-16T07:40:47.587Z,84
2023-05-16T07:41:18.065Z,84
2023-05-16T07:41:49.306Z,83
2023-05-16T07:42:37.615Z,83
2023-05-16T07:42:51.824Z,83
2023-05-16T07:43:53.263Z,83
2023-05-16T07:44:24.238Z,83
2023-05-16T07:44:55.201Z,83
2023-05-16T07:45:43.937Z,83
2023-05-16T07:45:57.754Z,84
2023-05-16T07:46:28.099Z,83
2023-05-16T07:46:59.034Z,84
2023-05-16T07:47:30.656Z,84
2023-05-16T07:48:01.719Z,83
2023-05-16T07:48:45.355Z,83
2023-05-16T07:49:03.292Z,83
2023-05-16T07:49:34.136Z,84
2023-05-16T07:50:05.649Z,83
2023-05-16T07:50:36.141Z,84
2023-05-16T07:51:07.419Z,84